KEBA

Elbert County-Patz Field Airport

Elberton, Georgia, USA
METAR KEBA 110235Z AUTO 00000KT 10SM SCT044 BKN065 OVC080 04/03 A3020 RMK AO2 T00380031
Observed Flight Rules
Dec-11 @ 02:35 UTC (23 minutes ago) Visual Flight Rules
Visibility Clouds
10 miles
  • Scattered at 4,400' AGL
  • Broken at 6,500' AGL
  • Overcast at 8,000' AGL
Temperatures Readings
Current 4°C / 39°F
Dewpoint 3°C / 37°F
Humidity 93%
Altimeter 30.2" Hg
Pressure 1023 hPa
Elevation 184
METAR KEBA 110235Z AUTO 00000KT 10SM SCT044 BKN065 OVC080 04/03 A3020 RMK AO2 T00380031
Observed Flight Rules
Dec-11 @ 02:35 UTC
(23 minutes ago)
VFR
Clouds
  • Scattered at 4,400' AGL
  • Broken at 6,500' AGL
  • Overcast at 8,000' AGL
Temperature Dewpoint
4°C / 39°F 3°C / 37°F
Humidity Altimeter Pressure
93% 30.2" Hg 1023 hPa